createdAt,value
2022-08-28T00:00:10.753Z,23.93
2022-08-28T00:02:12.117Z,23.93
2022-08-28T00:04:13.521Z,23.92
2022-08-28T00:06:14.891Z,23.92
2022-08-28T00:08:16.941Z,23.93
2022-08-28T00:10:18.316Z,23.92
2022-08-28T00:12:19.715Z,23.93
2022-08-28T00:14:21.214Z,23.93
2022-08-28T00:16:22.865Z,23.93
2022-08-28T00:18:28.174Z,23.95
2022-08-28T00:20:29.600Z,23.93
2022-08-28T00:22:31.319Z,23.92
2022-08-28T00:24:32.652Z,23.92
2022-08-28T00:26:52.383Z,23.93
2022-08-28T00:28:53.698Z,23.92
2022-08-28T00:30:55.306Z,23.91
2022-08-28T00:32:56.863Z,23.92
2022-08-28T00:34:58.227Z,23.93
2022-08-28T00:37:00.229Z,23.95
2022-08-28T00:39:01.586Z,23.99
2022-08-28T00:41:04.126Z,24.00
2022-08-28T00:43:06.358Z,23.99
2022-08-28T00:45:07.701Z,23.98
2022-08-28T00:47:09.919Z,23.98
2022-08-28T00:49:11.252Z,23.99
2022-08-28T00:51:31.241Z,24.00
2022-08-28T00:53:33.020Z,23.98
2022-08-28T00:55:34.618Z,23.98
2022-08-28T00:57:35.974Z,23.99
2022-08-28T00:59:37.567Z,23.97
2022-08-28T01:01:39.240Z,23.98
2022-08-28T01:03:40.732Z,23.95
2022-08-28T01:05:44.277Z,23.96
2022-08-28T01:07:45.695Z,23.95
2022-08-28T01:09:47.047Z,23.95
2022-08-28T01:11:48.415Z,23.96
2022-08-28T01:13:49.793Z,23.95
2022-08-28T01:15:51.447Z,23.96
2022-08-28T01:17:52.848Z,24.00
2022-08-28T01:19:57.153Z,24.00
2022-08-28T01:21:58.518Z,24.00
2022-08-28T01:23:59.852Z,23.98
2022-08-28T01:26:01.438Z,23.97
2022-08-28T01:28:06.819Z,24.02
2022-08-28T01:30:08.191Z,23.95
2022-08-28T01:32:09.524Z,23.91
2022-08-28T01:34:12.040Z,23.89
2022-08-28T01:36:13.440Z,23.87
2022-08-28T01:38:14.875Z,23.86
2022-08-28T01:40:23.246Z,23.86
2022-08-28T01:42:26.014Z,23.87
2022-08-28T01:44:27.344Z,23.86
2022-08-28T01:46:29.489Z,23.87
2022-08-28T01:48:30.907Z,23.86
2022-08-28T01:50:32.429Z,23.85
2022-08-28T01:52:33.772Z,23.85
2022-08-28T01:54:35.079Z,23.85
2022-08-28T01:56:37.800Z,23.83
2022-08-28T01:58:39.174Z,23.85
2022-08-28T02:00:40.528Z,23.85
2022-08-28T02:02:41.839Z,23.85
2022-08-28T02:04:47.563Z,23.82
2022-08-28T02:06:49.680Z,23.81
2022-08-28T02:08:55.251Z,23.82
2022-08-28T02:10:56.628Z,23.80
2022-08-28T02:12:59.099Z,23.79
2022-08-28T02:15:00.707Z,23.78
2022-08-28T02:17:02.622Z,23.77
2022-08-28T02:19:03.937Z,23.77
2022-08-28T02:21:05.235Z,23.77
2022-08-28T02:23:06.680Z,23.77
2022-08-28T02:25:08.052Z,23.76
2022-08-28T02:27:09.370Z,23.77
2022-08-28T02:29:10.683Z,23.76
2022-08-28T02:31:12.021Z,23.75
2022-08-28T02:33:13.405Z,23.76
2022-08-28T02:35:14.799Z,23.76
2022-08-28T02:37:16.150Z,23.79
2022-08-28T02:39:17.488Z,23.81
2022-08-28T02:41:18.809Z,23.80
2022-08-28T02:43:21.405Z,23.81
2022-08-28T02:45:22.751Z,23.82
2022-08-28T02:47:24.167Z,23.83
2022-08-28T02:49:25.516Z,23.82
2022-08-28T02:51:35.584Z,23.82
2022-08-28T02:53:36.999Z,23.81
2022-08-28T02:55:38.363Z,23.80
2022-08-28T02:57:39.893Z,23.80
2022-08-28T02:59:41.225Z,23.81
2022-08-28T03:01:42.635Z,23.80
2022-08-28T03:03:44.074Z,23.81
2022-08-28T03:05:45.412Z,23.80
2022-08-28T03:07:46.728Z,23.80
2022-08-28T03:09:48.048Z,23.79
2022-08-28T03:11:49.594Z,23.79
2022-08-28T03:13:50.919Z,23.78
2022-08-28T03:15:52.285Z,23.77
2022-08-28T03:17:57.331Z,23.76
2022-08-28T03:19:59.085Z,23.77
2022-08-28T03:22:00.427Z,23.77
2022-08-28T03:24:01.762Z,23.77
2022-08-28T03:26:03.167Z,23.78
2022-08-28T03:28:04.550Z,23.77
2022-08-28T03:30:07.101Z,23.76
2022-08-28T03:32:08.436Z,23.76
2022-08-28T03:34:09.755Z,23.75
2022-08-28T03:36:11.127Z,23.74
2022-08-28T03:38:12.572Z,23.74
2022-08-28T03:40:14.634Z,23.73
2022-08-28T03:42:16.007Z,23.72
2022-08-28T03:44:17.355Z,23.73
2022-08-28T03:46:18.837Z,23.71
2022-08-28T03:48:20.243Z,23.71
2022-08-28T03:50:21.995Z,23.71
2022-08-28T03:52:25.515Z,23.70
2022-08-28T03:54:26.840Z,23.70
2022-08-28T03:56:28.224Z,23.69
2022-08-28T03:58:29.542Z,23.70
2022-08-28T04:00:30.855Z,23.70
2022-08-28T04:02:32.169Z,23.73
2022-08-28T04:04:33.501Z,23.73
2022-08-28T04:06:36.138Z,23.74
2022-08-28T04:08:49.350Z,23.74
2022-08-28T04:10:50.679Z,23.73
2022-08-28T04:12:51.991Z,23.72
2022-08-28T04:14:53.387Z,23.72
2022-08-28T04:16:56.690Z,23.71
2022-08-28T04:19:01.105Z,23.72
2022-08-28T04:21:03.134Z,23.74
2022-08-28T04:23:05.799Z,23.73
2022-08-28T04:25:07.167Z,23.74
2022-08-28T04:27:08.523Z,23.74
2022-08-28T04:29:09.851Z,23.74
2022-08-28T04:31:11.197Z,23.74
2022-08-28T04:33:12.605Z,23.72
2022-08-28T04:35:13.979Z,23.72
2022-08-28T04:37:15.349Z,23.73
2022-08-28T04:39:16.936Z,23.74
2022-08-28T04:41:18.268Z,23.76
2022-08-28T04:43:19.632Z,23.75
2022-08-28T04:45:22.001Z,23.75
2022-08-28T04:47:23.766Z,23.75
2022-08-28T04:49:26.005Z,23.82
2022-08-28T04:51:27.522Z,23.84
2022-08-28T04:53:29.543Z,23.83
2022-08-28T04:55:54.425Z,23.81
2022-08-28T04:57:53.034Z,23.82
2022-08-28T04:59:54.456Z,23.83
2022-08-28T05:01:55.875Z,23.81
2022-08-28T05:03:57.719Z,23.81
2022-08-28T05:05:59.139Z,23.83
2022-08-28T05:08:00.623Z,23.82
2022-08-28T05:10:02.040Z,23.82
2022-08-28T05:12:03.824Z,23.82
2022-08-28T05:14:05.229Z,23.81
2022-08-28T05:16:06.733Z,23.85
2022-08-28T05:18:08.154Z,23.84
2022-08-28T05:20:09.630Z,23.81
2022-08-28T05:22:11.023Z,23.80
2022-08-28T05:24:13.812Z,23.78
2022-08-28T05:26:15.220Z,23.77
2022-08-28T05:28:17.166Z,23.77
2022-08-28T05:30:18.514Z,23.76
2022-08-28T05:32:19.846Z,23.76
2022-08-28T05:34:21.262Z,23.75
2022-08-28T05:36:22.854Z,23.75
2022-08-28T05:38:24.252Z,23.74
2022-08-28T05:40:26.130Z,23.74
2022-08-28T05:42:31.018Z,23.74
2022-08-28T05:44:32.764Z,23.75
2022-08-28T05:46:34.645Z,23.75
2022-08-28T05:48:38.296Z,23.76
2022-08-28T05:50:43.066Z,23.73
2022-08-28T05:52:48.992Z,23.74
2022-08-28T05:54:50.339Z,23.76
2022-08-28T05:56:51.654Z,23.75
2022-08-28T05:58:53.018Z,23.76
2022-08-28T06:00:54.352Z,23.76
2022-08-28T06:02:55.824Z,23.76
2022-08-28T06:04:57.812Z,23.76
2022-08-28T06:06:59.135Z,23.77
2022-08-28T06:09:00.537Z,23.76
2022-08-28T06:11:02.285Z,23.74
2022-08-28T06:13:04.475Z,23.72
2022-08-28T06:15:06.078Z,23.75
2022-08-28T06:17:07.480Z,23.75
2022-08-28T06:19:09.361Z,23.75
2022-08-28T06:21:10.815Z,23.75
2022-08-28T06:23:12.160Z,23.77
2022-08-28T06:25:14.321Z,23.78
2022-08-28T06:27:16.012Z,23.79
2022-08-28T06:29:21.020Z,23.81
2022-08-28T06:31:24.498Z,23.80
2022-08-28T06:33:27.356Z,23.85
2022-08-28T06:35:28.683Z,23.79
2022-08-28T06:37:30.059Z,23.77
2022-08-28T06:39:31.400Z,23.75
2022-08-28T06:41:32.807Z,23.73
2022-08-28T06:43:34.147Z,23.73
2022-08-28T06:45:35.801Z,23.75
2022-08-28T06:47:37.179Z,23.76
2022-08-28T06:49:38.717Z,23.76
2022-08-28T06:51:40.091Z,23.76
2022-08-28T06:53:41.472Z,23.77
2022-08-28T06:55:42.821Z,23.78
2022-08-28T06:57:47.235Z,23.78
2022-08-28T06:59:49.228Z,23.76
2022-08-28T07:01:53.187Z,23.70
2022-08-28T07:03:54.706Z,23.70
2022-08-28T07:05:56.037Z,23.71
2022-08-28T07:07:57.510Z,23.74
2022-08-28T07:09:58.827Z,23.75
2022-08-28T07:12:00.898Z,23.76
2022-08-28T07:14:02.340Z,23.76
2022-08-28T07:16:03.788Z,23.76
2022-08-28T07:18:05.218Z,23.76
2022-08-28T07:20:07.268Z,23.76
2022-08-28T07:22:08.604Z,23.77
2022-08-28T07:24:10.549Z,23.86
2022-08-28T07:26:11.888Z,24.00
2022-08-28T07:28:13.303Z,23.96
2022-08-28T07:30:14.712Z,23.81
2022-08-28T07:32:17.376Z,23.70
2022-08-28T07:34:18.835Z,23.62
2022-08-28T07:36:29.606Z,23.56
2022-08-28T07:38:31.515Z,23.51
2022-08-28T07:40:33.037Z,23.47
2022-08-28T07:43:06.708Z,23.45
2022-08-28T07:45:08.168Z,23.43
2022-08-28T07:47:11.618Z,23.40
2022-08-28T07:49:13.200Z,23.38
2022-08-28T07:51:14.551Z,23.37
2022-08-28T07:53:15.863Z,23.36
2022-08-28T07:55:17.183Z,23.33
2022-08-28T07:57:20.556Z,23.33
2022-08-28T07:59:24.246Z,23.31
2022-08-28T08:01:25.680Z,23.29
2022-08-28T08:03:27.452Z,23.28
2022-08-28T08:05:28.819Z,23.27
2022-08-28T08:07:30.564Z,23.27
2022-08-28T08:09:31.941Z,23.25
2022-08-28T08:11:33.294Z,23.24
2022-08-28T08:13:34.983Z,23.23
2022-08-28T08:15:36.367Z,23.22
2022-08-28T08:17:37.743Z,23.21
2022-08-28T08:19:39.392Z,23.21
2022-08-28T08:21:40.768Z,23.19
2022-08-28T08:23:42.179Z,23.19
2022-08-28T08:25:43.532Z,23.18
2022-08-28T08:27:44.971Z,23.18
2022-08-28T08:29:46.309Z,23.16
2022-08-28T08:31:47.705Z,23.15
2022-08-28T08:33:49.328Z,23.14
2022-08-28T08:35:51.155Z,23.14
2022-08-28T08:37:52.614Z,23.12
2022-08-28T08:39:54.886Z,23.11
2022-08-28T08:41:56.283Z,23.10
2022-08-28T08:43:57.684Z,23.09
2022-08-28T08:45:59.091Z,23.08
2022-08-28T08:48:00.435Z,23.09
2022-08-28T08:50:01.764Z,23.08
2022-08-28T08:52:03.139Z,23.07
2022-08-28T08:54:04.523Z,23.08
2022-08-28T08:56:06.235Z,23.06
2022-08-28T08:58:07.651Z,23.06
2022-08-28T09:00:13.678Z,23.05
2022-08-28T09:02:22.324Z,23.05
2022-08-28T09:04:34.405Z,23.05
2022-08-28T09:06:36.791Z,23.05
2022-08-28T09:08:38.187Z,23.05
2022-08-28T09:10:39.750Z,23.04
2022-08-28T09:12:41.100Z,23.04
2022-08-28T09:14:42.460Z,23.05
2022-08-28T09:16:43.783Z,23.04
2022-08-28T09:18:45.116Z,23.03
2022-08-28T09:20:46.540Z,23.03
2022-08-28T09:22:47.916Z,23.03
2022-08-28T09:24:49.275Z,21.96
2022-08-28T09:26:51.799Z,23.03
2022-08-28T09:28:53.463Z,23.03
2022-08-28T09:30:54.869Z,23.02
2022-08-28T09:32:56.225Z,23.02
2022-08-28T09:34:57.588Z,23.00
2022-08-28T09:36:58.983Z,23.00
2022-08-28T09:39:00.290Z,22.98
2022-08-28T09:41:20.479Z,22.98
2022-08-28T09:43:27.788Z,22.98
2022-08-28T09:45:29.168Z,22.97
2022-08-28T09:47:30.535Z,22.97
2022-08-28T09:49:31.914Z,22.95
2022-08-28T09:51:37.128Z,22.95
2022-08-28T09:53:38.507Z,22.94
2022-08-28T09:55:39.833Z,22.93
2022-08-28T09:57:41.172Z,22.92
2022-08-28T09:59:42.505Z,22.91
2022-08-28T10:01:45.102Z,22.90
2022-08-28T10:03:46.757Z,22.89
2022-08-28T10:05:48.086Z,22.89
2022-08-28T10:07:49.425Z,22.88
2022-08-28T10:09:50.816Z,22.88
2022-08-28T10:11:52.172Z,22.88
2022-08-28T10:13:53.491Z,22.88
2022-08-28T10:15:54.901Z,22.88
2022-08-28T10:17:56.330Z,22.88
2022-08-28T10:19:58.427Z,22.87
2022-08-28T10:21:59.730Z,22.88
2022-08-28T10:24:05.396Z,22.87
2022-08-28T10:26:07.127Z,22.87
2022-08-28T10:28:08.509Z,22.87
2022-08-28T10:30:13.352Z,22.85
2022-08-28T10:32:14.911Z,22.86
2022-08-28T10:34:16.295Z,21.79
2022-08-28T10:36:27.339Z,22.86
2022-08-28T10:38:36.522Z,22.87
2022-08-28T10:40:37.949Z,22.86
2022-08-28T10:42:39.398Z,22.85
2022-08-28T10:44:40.770Z,22.83
2022-08-28T10:46:42.404Z,22.84
2022-08-28T10:48:43.795Z,22.82
2022-08-28T10:50:45.218Z,22.81
2022-08-28T10:52:46.579Z,22.82
2022-08-28T10:54:48.047Z,22.81
2022-08-28T10:56:56.353Z,22.81
2022-08-28T10:58:58.956Z,22.80
2022-08-28T11:01:01.297Z,22.80
2022-08-28T11:03:02.794Z,22.80
2022-08-28T11:05:04.134Z,22.80
2022-08-28T11:07:05.450Z,22.80
2022-08-28T11:09:25.003Z,22.79
2022-08-28T11:11:26.329Z,22.79
2022-08-28T11:13:27.669Z,22.78
2022-08-28T11:15:36.357Z,22.78
2022-08-28T11:17:38.595Z,22.78
2022-08-28T11:19:43.963Z,22.77
2022-08-28T11:21:46.703Z,22.92
2022-08-28T11:23:49.064Z,23.06
2022-08-28T11:25:51.767Z,23.18
2022-08-28T11:27:53.147Z,23.21
2022-08-28T11:29:55.534Z,23.23
2022-08-28T11:31:56.920Z,23.25
2022-08-28T11:34:00.090Z,23.28
2022-08-28T11:36:01.439Z,23.31
2022-08-28T11:38:02.768Z,23.34
2022-08-28T11:40:04.116Z,23.34
2022-08-28T11:42:05.467Z,23.36
2022-08-28T11:44:06.866Z,23.35
2022-08-28T11:46:08.264Z,23.35
2022-08-28T11:48:10.130Z,23.38
2022-08-28T11:50:11.506Z,23.39
2022-08-28T11:52:12.807Z,23.41
2022-08-28T11:54:14.110Z,23.39
2022-08-28T11:56:16.338Z,23.41
2022-08-28T11:58:31.862Z,23.39
2022-08-28T12:00:33.195Z,23.43
2022-08-28T12:02:35.576Z,23.43
2022-08-28T12:04:36.954Z,23.43
2022-08-28T12:06:38.336Z,23.44
2022-08-28T12:08:39.651Z,23.43
2022-08-28T12:10:40.967Z,23.42
2022-08-28T12:12:42.295Z,23.42
2022-08-28T12:14:43.620Z,23.42
2022-08-28T12:16:44.951Z,23.41
2022-08-28T12:18:46.383Z,23.40
2022-08-28T12:20:47.718Z,23.39
2022-08-28T12:22:50.313Z,23.40
2022-08-28T12:24:51.633Z,23.40
2022-08-28T12:26:53.272Z,23.41
2022-08-28T12:28:54.647Z,23.42
2022-08-28T12:30:56.178Z,23.42
2022-08-28T12:32:57.549Z,23.43
2022-08-28T12:34:58.860Z,23.45
2022-08-28T12:37:00.195Z,23.45
2022-08-28T12:39:01.648Z,23.45
2022-08-28T12:41:03.066Z,23.46
2022-08-28T12:43:04.598Z,23.46
2022-08-28T12:45:06.013Z,23.44
2022-08-28T12:47:07.419Z,23.45
2022-08-28T12:49:08.765Z,23.46
2022-08-28T12:51:10.091Z,23.46
2022-08-28T12:53:11.765Z,23.58
2022-08-28T12:55:13.132Z,23.75
2022-08-28T12:57:14.488Z,23.81
2022-08-28T12:59:15.799Z,23.83
2022-08-28T13:01:17.235Z,23.83
2022-08-28T13:03:18.672Z,23.85
2022-08-28T13:05:20.012Z,24.12
2022-08-28T13:07:21.321Z,24.22
2022-08-28T13:09:22.622Z,24.29
2022-08-28T13:11:23.991Z,24.04
2022-08-28T13:13:25.516Z,23.80
2022-08-28T13:15:26.894Z,23.79
2022-08-28T13:17:28.202Z,23.86
2022-08-28T13:19:29.773Z,23.63
2022-08-28T13:21:34.081Z,23.51
2022-08-28T13:23:36.079Z,23.44
2022-08-28T13:25:37.461Z,23.42
2022-08-28T13:27:39.894Z,23.38
2022-08-28T13:29:41.394Z,23.39
2022-08-28T13:31:43.282Z,23.45
2022-08-28T13:33:44.633Z,23.43
2022-08-28T13:35:46.766Z,23.39
2022-08-28T13:37:48.206Z,23.36
2022-08-28T13:39:49.587Z,23.36
2022-08-28T13:41:50.934Z,23.38
2022-08-28T13:43:52.238Z,23.39
2022-08-28T13:45:53.601Z,23.39
2022-08-28T13:47:55.131Z,23.37
2022-08-28T13:49:56.602Z,23.33
2022-08-28T13:51:58.032Z,23.29
2022-08-28T13:53:59.395Z,23.26
2022-08-28T13:56:02.759Z,23.22
2022-08-28T13:58:04.299Z,23.20
2022-08-28T14:00:05.666Z,23.21
2022-08-28T14:02:26.313Z,23.20
2022-08-28T14:04:27.654Z,23.20
2022-08-28T14:06:31.628Z,23.18
2022-08-28T14:08:33.183Z,23.15
2022-08-28T14:10:35.454Z,23.14
2022-08-28T14:12:36.821Z,23.12
2022-08-28T14:14:38.166Z,23.01
2022-08-28T14:18:41.347Z,22.37
2022-08-28T14:20:42.874Z,22.34
2022-08-28T14:22:44.182Z,22.29
2022-08-28T14:24:46.153Z,22.17
2022-08-28T14:26:47.457Z,22.13
2022-08-28T14:28:48.767Z,22.18
2022-08-28T14:30:50.273Z,22.56
2022-08-28T14:32:51.587Z,22.88
2022-08-28T14:34:53.396Z,22.97
2022-08-28T14:36:57.870Z,22.99
2022-08-28T14:39:02.792Z,22.98
2022-08-28T14:41:06.770Z,22.56
2022-08-28T14:43:08.135Z,23.13
2022-08-28T14:45:09.540Z,23.70
2022-08-28T14:47:10.888Z,23.97
2022-08-28T14:49:12.225Z,24.14
2022-08-28T14:51:13.555Z,24.09
2022-08-28T14:53:15.189Z,24.06
2022-08-28T14:55:18.825Z,24.11
2022-08-28T14:57:20.247Z,24.22
2022-08-28T14:59:24.200Z,24.30
2022-08-28T15:01:36.258Z,24.29
2022-08-28T15:03:42.071Z,24.22
2022-08-28T15:05:43.585Z,24.27
2022-08-28T15:07:45.747Z,24.48
2022-08-28T15:09:47.158Z,24.48
2022-08-28T15:11:48.523Z,24.41
2022-08-28T15:13:49.860Z,24.37
2022-08-28T15:15:51.216Z,24.37
2022-08-28T15:17:52.532Z,24.41
2022-08-28T15:19:53.942Z,24.39
2022-08-28T15:21:55.842Z,24.52
2022-08-28T15:23:57.814Z,24.10
2022-08-28T15:25:59.774Z,23.92
2022-08-28T15:28:01.080Z,24.02
2022-08-28T15:30:02.440Z,23.73
2022-08-28T15:32:04.167Z,23.60
2022-08-28T15:34:06.536Z,23.93
2022-08-28T15:36:14.870Z,24.05
2022-08-28T15:38:16.225Z,24.08
2022-08-28T15:40:36.009Z,24.16
2022-08-28T15:42:37.352Z,24.31
2022-08-28T15:44:38.982Z,24.39
2022-08-28T15:46:40.364Z,24.33
2022-08-28T15:48:41.789Z,24.55
2022-08-28T15:50:43.879Z,24.73
2022-08-28T15:52:45.376Z,24.69
2022-08-28T15:54:46.744Z,24.70
2022-08-28T15:56:49.792Z,24.70
2022-08-28T15:58:54.173Z,24.71
2022-08-28T16:00:55.789Z,24.70
2022-08-28T16:03:00.975Z,24.69
2022-08-28T16:05:02.499Z,24.72
2022-08-28T16:07:03.868Z,24.28
2022-08-28T16:09:05.296Z,24.40
2022-08-28T16:11:06.901Z,24.62
2022-08-28T16:13:08.304Z,24.80
2022-08-28T16:15:09.672Z,24.78
2022-08-28T16:17:11.586Z,24.91
2022-08-28T16:19:13.147Z,24.79
2022-08-28T16:21:14.507Z,24.75
2022-08-28T16:23:15.979Z,24.77
2022-08-28T16:25:17.879Z,24.83
2022-08-28T16:27:19.339Z,24.83
2022-08-28T16:29:24.020Z,24.88
2022-08-28T16:31:25.536Z,24.88
2022-08-28T16:33:27.126Z,24.90
2022-08-28T16:35:28.611Z,24.92
2022-08-28T16:37:38.287Z,24.31
2022-08-28T16:39:41.600Z,24.44
2022-08-28T16:41:46.375Z,24.64
2022-08-28T16:43:48.007Z,24.12
2022-08-28T16:45:51.005Z,24.14
2022-08-28T16:47:52.394Z,24.45
2022-08-28T16:49:53.699Z,24.21
2022-08-28T16:51:55.032Z,23.95
2022-08-28T16:53:56.570Z,23.83
2022-08-28T16:55:57.948Z,23.76
2022-08-28T16:57:59.256Z,23.71
2022-08-28T17:00:00.726Z,23.67
2022-08-28T17:02:02.074Z,23.63
2022-08-28T17:04:03.439Z,23.59
2022-08-28T17:06:04.807Z,23.56
2022-08-28T17:08:06.125Z,23.53
2022-08-28T17:10:08.630Z,23.49
2022-08-28T17:12:10.218Z,23.46
2022-08-28T17:14:12.932Z,23.45
2022-08-28T17:16:14.355Z,23.41
2022-08-28T17:18:15.767Z,23.39
2022-08-28T17:20:35.483Z,23.36
2022-08-28T17:22:36.867Z,23.34
2022-08-28T17:24:38.428Z,23.33
2022-08-28T17:26:39.743Z,23.31
2022-08-28T17:28:41.127Z,23.29
2022-08-28T17:30:42.512Z,23.25
2022-08-28T17:32:43.923Z,23.24
2022-08-28T17:34:45.275Z,23.23
2022-08-28T17:36:46.594Z,23.20
2022-08-28T17:38:47.928Z,23.18
2022-08-28T17:40:49.307Z,23.18
2022-08-28T17:42:53.606Z,23.15
2022-08-28T17:44:55.392Z,23.12
2022-08-28T17:46:56.803Z,23.11
2022-08-28T17:48:58.207Z,23.10
2022-08-28T17:51:01.759Z,23.08
2022-08-28T17:53:03.088Z,23.06
2022-08-28T17:55:04.493Z,23.05
2022-08-28T17:57:05.816Z,23.04
2022-08-28T17:59:07.738Z,23.02
2022-08-28T18:01:09.071Z,23.00
2022-08-28T18:03:10.445Z,23.43
2022-08-28T18:05:11.824Z,23.76
2022-08-28T18:07:13.224Z,23.98
2022-08-28T18:09:14.650Z,24.05
2022-08-28T18:11:15.976Z,24.25
2022-08-28T18:13:17.320Z,24.21
2022-08-28T18:15:18.848Z,24.27
2022-08-28T18:17:20.465Z,24.36
2022-08-28T18:19:21.908Z,24.34
2022-08-28T18:21:25.987Z,24.36
2022-08-28T18:23:27.351Z,24.35
2022-08-28T18:25:50.791Z,24.42
2022-08-28T18:27:52.413Z,24.50
2022-08-28T18:29:53.859Z,24.50
2022-08-28T18:31:55.189Z,24.49
2022-08-28T18:33:56.905Z,24.57
2022-08-28T18:35:58.579Z,24.48
2022-08-28T18:38:00.014Z,24.45
2022-08-28T18:40:01.770Z,24.48
2022-08-28T18:42:03.315Z,24.57
2022-08-28T18:44:04.918Z,24.59
2022-08-28T18:46:09.769Z,24.59
2022-08-28T18:48:11.216Z,24.58
2022-08-28T18:50:12.609Z,24.58
2022-08-28T18:52:14.020Z,24.67
2022-08-28T18:54:16.442Z,24.66
2022-08-28T18:56:18.673Z,24.70
2022-08-28T18:58:23.167Z,24.62
2022-08-28T19:00:24.561Z,24.60
2022-08-28T19:02:26.061Z,24.68
2022-08-28T19:04:27.448Z,24.61
2022-08-28T19:06:29.167Z,24.64
2022-08-28T19:08:30.647Z,24.60
2022-08-28T19:10:34.476Z,24.67
2022-08-28T19:12:36.158Z,24.75
2022-08-28T19:14:37.903Z,24.72
2022-08-28T19:16:39.268Z,24.58
2022-08-28T19:18:40.582Z,24.31
2022-08-28T19:20:42.034Z,24.52
2022-08-28T19:22:43.448Z,24.56
2022-08-28T19:24:45.174Z,24.61
2022-08-28T19:26:46.560Z,24.68
2022-08-28T19:28:49.225Z,24.67
2022-08-28T19:30:51.002Z,24.74
2022-08-28T19:32:52.430Z,24.78
2022-08-28T19:34:53.904Z,24.83
2022-08-28T19:36:55.223Z,24.86
2022-08-28T19:38:56.631Z,24.77
2022-08-28T19:40:58.016Z,24.80
2022-08-28T19:43:00.638Z,24.86
2022-08-28T19:45:02.133Z,24.86
2022-08-28T19:47:03.488Z,24.87
2022-08-28T19:49:05.860Z,24.80
2022-08-28T19:51:07.240Z,24.79
2022-08-28T19:53:20.984Z,24.80
2022-08-28T19:55:22.333Z,24.84
2022-08-28T19:57:23.670Z,24.81
2022-08-28T19:59:27.138Z,24.43
2022-08-28T20:01:29.722Z,24.50
2022-08-28T20:03:31.410Z,24.48
2022-08-28T20:05:32.804Z,24.51
2022-08-28T20:07:34.128Z,24.71
2022-08-28T20:09:35.792Z,24.74
2022-08-28T20:11:37.631Z,24.74
2022-08-28T20:13:40.103Z,24.73
2022-08-28T20:15:41.485Z,24.78
2022-08-28T20:17:43.659Z,24.86
2022-08-28T20:19:46.201Z,24.89
2022-08-28T20:21:49.829Z,24.87
2022-08-28T20:23:51.197Z,24.85
2022-08-28T20:25:52.580Z,24.87
2022-08-28T20:27:55.032Z,24.89
2022-08-28T20:29:57.844Z,25.14
2022-08-28T20:31:59.172Z,25.20
2022-08-28T20:34:00.564Z,25.21
2022-08-28T20:36:01.903Z,25.19
2022-08-28T20:38:03.357Z,25.05
2022-08-28T20:40:09.832Z,25.03
2022-08-28T20:42:11.862Z,25.20
2022-08-28T20:44:13.246Z,25.25
2022-08-28T20:46:14.666Z,25.21
2022-08-28T20:48:16.091Z,25.22
2022-08-28T20:50:17.431Z,25.11
2022-08-28T20:52:18.780Z,25.22
2022-08-28T20:54:21.527Z,25.16
2022-08-28T20:56:22.885Z,25.21
2022-08-28T20:58:24.226Z,25.20
2022-08-28T21:00:25.605Z,25.25
2022-08-28T21:02:26.980Z,25.24
2022-08-28T21:04:31.290Z,25.13
2022-08-28T21:06:32.663Z,25.24
2022-08-28T21:08:34.041Z,25.23
2022-08-28T21:10:35.671Z,25.20
2022-08-28T21:12:37.073Z,25.15
2022-08-28T21:14:38.404Z,25.22
2022-08-28T21:16:40.137Z,24.28
2022-08-28T21:18:59.083Z,24.33
2022-08-28T21:21:03.455Z,24.64
2022-08-28T21:23:05.300Z,24.76
2022-08-28T21:25:07.221Z,24.88
2022-08-28T21:27:09.595Z,24.92
2022-08-28T21:29:10.987Z,24.85
2022-08-28T21:31:12.512Z,24.82
2022-08-28T21:33:14.339Z,24.89
2022-08-28T21:35:15.654Z,24.86
2022-08-28T21:37:17.040Z,24.99
2022-08-28T21:39:20.355Z,24.83
2022-08-28T21:41:21.664Z,24.64
2022-08-28T21:43:22.967Z,24.50
2022-08-28T21:45:25.367Z,24.37
2022-08-28T21:47:26.681Z,24.30
2022-08-28T21:49:28.014Z,24.25
2022-08-28T21:51:29.364Z,24.20
2022-08-28T21:53:31.378Z,24.15
2022-08-28T21:55:32.726Z,24.13
2022-08-28T21:57:34.530Z,24.10
2022-08-28T21:59:38.012Z,24.05
2022-08-28T22:01:39.648Z,24.03
2022-08-28T22:03:41.538Z,24.00
2022-08-28T22:05:42.858Z,23.98
2022-08-28T22:07:45.138Z,23.95
2022-08-28T22:09:46.632Z,23.94
2022-08-28T22:11:47.974Z,23.92
2022-08-28T22:13:49.307Z,23.90
2022-08-28T22:15:50.640Z,23.89
2022-08-28T22:17:52.107Z,23.87
2022-08-28T22:19:53.438Z,23.84
2022-08-28T22:22:13.651Z,23.84
2022-08-28T22:24:15.006Z,23.83
2022-08-28T22:26:16.335Z,23.80
2022-08-28T22:28:17.667Z,23.80
2022-08-28T22:30:19.017Z,23.79
2022-08-28T22:32:25.516Z,23.78
2022-08-28T22:34:26.946Z,23.77
2022-08-28T22:36:29.149Z,23.74
2022-08-28T22:38:30.811Z,23.73
2022-08-28T22:40:33.058Z,23.73
2022-08-28T22:42:34.435Z,23.72
2022-08-28T22:44:39.703Z,23.72
2022-08-28T22:46:41.011Z,23.70
2022-08-28T22:48:43.023Z,23.70
2022-08-28T22:50:44.343Z,23.70
2022-08-28T22:52:45.667Z,23.66
2022-08-28T22:54:47.090Z,23.65
2022-08-28T22:56:53.688Z,23.65
2022-08-28T22:58:55.034Z,23.65
2022-08-28T23:00:56.363Z,23.63
2022-08-28T23:02:57.807Z,23.62
2022-08-28T23:04:59.171Z,23.59
2022-08-28T23:07:00.500Z,23.58
2022-08-28T23:09:01.844Z,23.57
2022-08-28T23:11:03.163Z,23.56
2022-08-28T23:13:04.479Z,23.54
2022-08-28T23:15:06.650Z,23.52
2022-08-28T23:17:07.983Z,23.50
2022-08-28T23:19:13.283Z,23.49
2022-08-28T23:21:15.075Z,23.49
2022-08-28T23:23:16.585Z,23.53
2022-08-28T23:25:17.902Z,23.54
2022-08-28T23:27:35.765Z,23.54
2022-08-28T23:29:37.759Z,23.53
2022-08-28T23:31:39.170Z,23.55
2022-08-28T23:33:40.606Z,23.55
2022-08-28T23:35:42.291Z,23.60
2022-08-28T23:37:46.769Z,23.42
2022-08-28T23:39:50.195Z,23.33
2022-08-28T23:41:55.299Z,23.39
2022-08-28T23:43:56.764Z,23.42
2022-08-28T23:45:58.359Z,23.41
2022-08-28T23:47:59.824Z,23.43
2022-08-28T23:50:01.207Z,23.42
2022-08-28T23:52:02.531Z,23.43
2022-08-28T23:54:03.973Z,23.41
2022-08-28T23:56:07.271Z,23.43
2022-08-28T23:58:09.262Z,23.41
